createdAt,value
2018-06-30T00:00:07.884Z,99.90
2018-06-30T00:04:11.768Z,99.90
2018-06-30T00:08:15.681Z,99.90
2018-06-30T00:12:19.551Z,99.90
2018-06-30T00:16:23.451Z,99.90
2018-06-30T00:20:27.336Z,99.90
2018-06-30T00:24:31.240Z,99.90
2018-06-30T00:28:35.104Z,99.90
2018-06-30T00:32:41.917Z,99.90
2018-06-30T00:36:45.792Z,99.90
2018-06-30T00:40:49.707Z,99.90
2018-06-30T00:44:53.552Z,99.90
2018-06-30T00:53:01.121Z,99.90
2018-06-30T00:57:05.034Z,99.90
2018-06-30T01:01:08.915Z,99.90
2018-06-30T01:05:12.791Z,99.90
2018-06-30T01:09:16.764Z,99.90
2018-06-30T01:13:20.628Z,99.90
2018-06-30T01:17:24.563Z,99.90
2018-06-30T01:21:28.443Z,99.90
2018-06-30T01:25:32.363Z,99.90
2018-06-30T01:29:36.252Z,99.90
2018-06-30T01:33:40.119Z,99.90
2018-06-30T01:37:43.984Z,99.90
2018-06-30T01:41:47.852Z,99.90
2018-06-30T01:45:51.744Z,99.90
2018-06-30T01:49:55.667Z,99.90
2018-06-30T01:53:59.531Z,99.90
2018-06-30T01:58:03.400Z,99.90
2018-06-30T02:02:07.264Z,99.90
2018-06-30T02:06:11.145Z,99.90
2018-06-30T02:10:15.099Z,99.90
2018-06-30T02:14:18.995Z,99.90
2018-06-30T02:18:22.844Z,99.90
2018-06-30T02:22:26.715Z,99.90
2018-06-30T02:26:30.596Z,99.90
2018-06-30T02:30:34.464Z,99.90
2018-06-30T02:38:41.852Z,99.90
2018-06-30T02:42:45.721Z,99.90
2018-06-30T02:46:49.591Z,99.90
2018-06-30T02:50:53.533Z,99.90
2018-06-30T02:54:57.765Z,99.90
2018-06-30T02:59:01.645Z,99.90
2018-06-30T03:03:05.643Z,99.90
2018-06-30T03:07:09.516Z,99.90
2018-06-30T03:11:13.424Z,99.90
2018-06-30T03:15:17.295Z,99.90
2018-06-30T03:19:21.196Z,99.90
2018-06-30T03:23:25.072Z,99.90
2018-06-30T03:27:28.953Z,99.90
2018-06-30T03:31:32.914Z,99.90
2018-06-30T03:35:36.697Z,99.90
2018-06-30T03:39:40.556Z,99.90
2018-06-30T03:43:44.439Z,99.90
2018-06-30T03:47:48.480Z,99.90
2018-06-30T03:51:52.368Z,99.90
2018-06-30T03:55:56.239Z,99.90
2018-06-30T04:00:00.116Z,99.90
2018-06-30T04:04:03.968Z,99.90
2018-06-30T04:08:07.829Z,99.90
2018-06-30T04:12:11.684Z,99.90
2018-06-30T04:16:15.548Z,99.90
2018-06-30T04:20:19.400Z,99.90
2018-06-30T04:24:23.254Z,99.90
2018-06-30T04:28:27.122Z,99.90
2018-06-30T04:32:30.992Z,99.90
2018-06-30T04:40:38.396Z,99.90
2018-06-30T04:44:42.256Z,99.90
2018-06-30T04:48:46.311Z,99.90
2018-06-30T04:52:50.236Z,99.90
2018-06-30T04:56:54.107Z,99.90
2018-06-30T05:00:57.971Z,99.90
2018-06-30T05:05:01.829Z,99.90
2018-06-30T05:09:06.944Z,99.90
2018-06-30T05:13:10.900Z,99.90
2018-06-30T05:17:14.784Z,99.90
2018-06-30T05:21:18.644Z,99.90
2018-06-30T05:25:22.496Z,99.90
2018-06-30T05:29:26.344Z,99.90
2018-06-30T05:33:30.289Z,99.90
2018-06-30T05:37:34.056Z,99.90
2018-06-30T05:41:38.395Z,99.90
2018-06-30T05:45:42.312Z,99.90
2018-06-30T05:49:46.172Z,99.90
2018-06-30T05:53:50.070Z,99.90
2018-06-30T05:57:53.960Z,99.90
2018-06-30T06:01:57.838Z,99.90
2018-06-30T06:06:01.677Z,99.90
2018-06-30T06:10:05.632Z,99.90
2018-06-30T06:14:09.556Z,99.90
2018-06-30T06:18:13.416Z,99.90
2018-06-30T06:22:17.276Z,99.90
2018-06-30T06:26:21.144Z,99.90
2018-06-30T06:30:25.012Z,99.90
2018-06-30T06:34:28.946Z,99.90
2018-06-30T06:38:32.822Z,99.90
2018-06-30T06:42:36.688Z,99.90
2018-06-30T06:46:40.573Z,99.90
2018-06-30T06:50:44.443Z,99.90
2018-06-30T06:54:48.309Z,99.90
2018-06-30T06:58:52.247Z,93.90
2018-06-30T07:02:56.092Z,94.60
2018-06-30T07:06:59.973Z,96.00
2018-06-30T07:11:03.889Z,94.60
2018-06-30T07:15:07.760Z,94.70
2018-06-30T07:19:11.706Z,95.30
2018-06-30T07:23:15.523Z,95.50
2018-06-30T07:27:19.383Z,97.30
2018-06-30T07:31:23.257Z,97.70
2018-06-30T07:35:27.111Z,99.90
2018-06-30T07:39:30.957Z,99.90
2018-06-30T07:43:34.852Z,99.00
2018-06-30T07:47:38.693Z,99.90
2018-06-30T07:51:42.617Z,97.70
2018-06-30T07:55:46.472Z,95.50
2018-06-30T07:59:50.344Z,95.10
2018-06-30T08:03:54.197Z,95.60
2018-06-30T08:07:58.048Z,98.70
2018-06-30T08:12:01.933Z,96.60
2018-06-30T08:16:05.828Z,96.00
2018-06-30T08:20:09.780Z,96.00
2018-06-30T08:24:13.664Z,97.50
2018-06-30T08:28:18.088Z,97.10
2018-06-30T08:32:21.948Z,96.90
2018-06-30T08:36:25.865Z,96.10
2018-06-30T08:40:29.731Z,91.70
2018-06-30T08:44:33.639Z,95.60
2018-06-30T08:48:37.479Z,96.90
2018-06-30T08:52:41.344Z,93.60
2018-06-30T08:56:45.223Z,94.00
2018-06-30T09:00:49.095Z,95.20
2018-06-30T09:04:52.933Z,94.40
2018-06-30T09:08:59.183Z,93.70
2018-06-30T09:13:03.200Z,93.10
2018-06-30T09:17:07.097Z,92.00
2018-06-30T09:21:10.964Z,92.10
2018-06-30T09:29:18.331Z,92.80
2018-06-30T09:33:22.184Z,92.10
2018-06-30T09:37:26.052Z,91.20
2018-06-30T09:41:29.896Z,91.10
2018-06-30T09:45:33.788Z,92.00
2018-06-30T09:49:37.696Z,85.10
2018-06-30T09:53:41.580Z,86.60
2018-06-30T09:57:45.511Z,82.10
2018-06-30T10:01:49.413Z,76.90
2018-06-30T10:05:53.380Z,78.40
2018-06-30T10:09:57.280Z,76.10
2018-06-30T10:14:01.181Z,73.70
2018-06-30T10:18:05.648Z,78.20
2018-06-30T10:22:09.639Z,77.70
2018-06-30T10:26:13.517Z,69.00
2018-06-30T10:30:17.364Z,68.90
2018-06-30T10:34:21.209Z,71.50
2018-06-30T10:38:25.056Z,72.90
2018-06-30T10:42:29.010Z,75.70
2018-06-30T10:46:32.861Z,73.40
2018-06-30T10:50:36.824Z,73.10
2018-06-30T10:54:40.656Z,76.50
2018-06-30T10:58:44.520Z,68.50
2018-06-30T11:02:48.369Z,69.30
2018-06-30T11:06:52.216Z,70.20
2018-06-30T11:10:56.113Z,68.70
2018-06-30T11:14:59.985Z,68.90
2018-06-30T11:19:03.856Z,69.50
2018-06-30T11:23:07.800Z,72.30
2018-06-30T11:27:11.688Z,72.30
2018-06-30T11:31:15.540Z,75.00
2018-06-30T11:35:19.407Z,69.50
2018-06-30T11:39:23.364Z,71.80
2018-06-30T11:43:27.416Z,71.70
2018-06-30T11:47:31.272Z,73.00
2018-06-30T11:51:35.192Z,65.10
2018-06-30T11:55:39.315Z,67.60
2018-06-30T11:59:43.200Z,66.00
2018-06-30T12:03:47.060Z,66.60
2018-06-30T12:07:51.024Z,69.60
2018-06-30T12:11:54.856Z,68.50
2018-06-30T12:15:58.761Z,74.50
2018-06-30T12:20:02.632Z,70.60
2018-06-30T12:24:06.476Z,69.30
2018-06-30T12:28:10.351Z,72.70
2018-06-30T12:32:14.276Z,71.90
2018-06-30T12:36:18.152Z,74.60
2018-06-30T12:40:22.025Z,72.60
2018-06-30T12:44:25.880Z,70.50
2018-06-30T12:48:29.776Z,66.40
2018-06-30T12:52:33.728Z,70.70
2018-06-30T12:56:37.596Z,68.90
2018-06-30T13:00:41.457Z,68.00
2018-06-30T13:04:45.324Z,71.30
2018-06-30T13:08:49.176Z,61.60
2018-06-30T13:16:56.604Z,65.70
2018-06-30T13:21:00.448Z,66.80
2018-06-30T13:25:04.348Z,66.30
2018-06-30T13:29:08.199Z,68.50
2018-06-30T13:33:12.045Z,72.00
2018-06-30T13:37:15.915Z,67.70
2018-06-30T13:41:19.796Z,63.60
2018-06-30T13:45:23.692Z,65.20
2018-06-30T13:49:27.690Z,65.80
2018-06-30T13:53:31.528Z,68.50
2018-06-30T13:57:35.544Z,69.10
2018-06-30T14:01:40.069Z,63.90
2018-06-30T14:05:43.925Z,64.00
2018-06-30T14:09:47.792Z,66.20
2018-06-30T14:13:51.721Z,65.40
2018-06-30T14:17:55.628Z,67.70
2018-06-30T14:21:59.487Z,65.10
2018-06-30T14:26:03.361Z,66.60
2018-06-30T14:30:09.601Z,64.40
2018-06-30T14:34:13.464Z,64.40
2018-06-30T14:38:17.312Z,64.90
2018-06-30T14:42:21.763Z,64.70
2018-06-30T14:46:25.613Z,66.70
2018-06-30T14:50:29.525Z,66.10
2018-06-30T14:54:33.364Z,69.40
2018-06-30T14:58:37.252Z,67.90
2018-06-30T15:02:41.109Z,70.20
2018-06-30T15:06:45.054Z,64.80
2018-06-30T15:10:48.935Z,64.80
2018-06-30T15:14:52.912Z,64.90
2018-06-30T15:18:56.822Z,62.30
2018-06-30T15:23:00.756Z,59.10
2018-06-30T15:31:08.448Z,63.20
2018-06-30T15:35:12.316Z,61.90
2018-06-30T15:39:16.164Z,63.40
2018-06-30T15:43:20.024Z,67.10
2018-06-30T15:47:23.884Z,67.20
2018-06-30T15:51:27.744Z,65.00
2018-06-30T15:55:31.620Z,68.80
2018-06-30T15:59:35.516Z,70.00
2018-06-30T16:03:39.407Z,68.70
2018-06-30T16:07:43.293Z,68.60
2018-06-30T16:11:47.218Z,67.70
2018-06-30T16:15:51.065Z,70.50
2018-06-30T16:19:54.932Z,69.80
2018-06-30T16:28:02.308Z,65.80
2018-06-30T16:32:06.177Z,70.30
2018-06-30T16:36:10.073Z,67.70
2018-06-30T16:40:13.927Z,69.10
2018-06-30T16:44:17.818Z,68.90
2018-06-30T16:48:21.908Z,71.40
2018-06-30T16:52:25.751Z,69.20
2018-06-30T16:56:29.636Z,73.30
2018-06-30T17:00:36.042Z,73.40
2018-06-30T17:04:39.888Z,72.90
2018-06-30T17:08:43.784Z,71.60
2018-06-30T17:12:47.671Z,72.10
2018-06-30T17:16:51.614Z,70.40
2018-06-30T17:20:55.511Z,72.80
2018-06-30T17:24:59.540Z,73.70
2018-06-30T17:29:03.392Z,72.70
2018-06-30T17:33:07.277Z,73.20
2018-06-30T17:37:11.132Z,76.80
2018-06-30T17:41:15.053Z,71.40
2018-06-30T17:45:19.020Z,70.20
2018-06-30T17:49:22.923Z,71.60
2018-06-30T17:53:26.865Z,73.30
2018-06-30T17:57:30.745Z,75.70
2018-06-30T18:01:34.618Z,76.80
2018-06-30T18:05:38.491Z,75.10
2018-06-30T18:09:42.344Z,76.40
2018-06-30T18:13:46.219Z,76.00
2018-06-30T18:17:50.125Z,76.30
2018-06-30T18:21:54.061Z,76.00
2018-06-30T18:25:57.892Z,78.30
2018-06-30T18:30:01.753Z,76.60
2018-06-30T18:34:06.016Z,79.70
2018-06-30T18:38:09.904Z,80.50
2018-06-30T18:42:13.791Z,79.30
2018-06-30T18:46:17.751Z,79.50
2018-06-30T18:50:21.560Z,79.00
2018-06-30T18:54:25.434Z,79.40
2018-06-30T18:58:29.274Z,81.20
2018-06-30T19:02:33.441Z,81.60
2018-06-30T19:06:37.345Z,81.60
2018-06-30T19:10:41.209Z,82.50
2018-06-30T19:14:45.137Z,82.80
2018-06-30T19:18:49.820Z,83.60
2018-06-30T19:22:53.657Z,84.60
2018-06-30T19:26:57.642Z,84.80
2018-06-30T19:35:05.152Z,87.50
2018-06-30T19:39:10.432Z,87.00
2018-06-30T19:43:14.288Z,87.90
2018-06-30T19:47:18.204Z,90.20
2018-06-30T19:51:22.072Z,90.20
2018-06-30T19:55:26.170Z,90.60
2018-06-30T19:59:30.841Z,90.30
2018-06-30T20:03:34.716Z,91.00
2018-06-30T20:07:43.911Z,91.10
2018-06-30T20:11:47.768Z,92.00
2018-06-30T20:15:51.630Z,92.40
2018-06-30T20:19:55.589Z,93.30
2018-06-30T20:23:59.424Z,93.30
2018-06-30T20:28:03.384Z,95.50
2018-06-30T20:32:07.204Z,96.20
2018-06-30T20:36:11.121Z,96.20
2018-06-30T20:40:14.972Z,96.60
2018-06-30T20:44:18.848Z,96.70
2018-06-30T20:48:22.696Z,97.70
2018-06-30T20:52:26.566Z,97.30
2018-06-30T20:56:30.455Z,99.90
2018-06-30T21:00:34.260Z,99.80
2018-06-30T21:04:38.148Z,99.10
2018-06-30T21:08:41.984Z,98.50
2018-06-30T21:12:45.937Z,99.90
2018-06-30T21:16:49.790Z,99.00
2018-06-30T21:20:53.663Z,99.80
2018-06-30T21:24:57.528Z,99.90
2018-06-30T21:29:01.376Z,99.90
2018-06-30T21:33:05.236Z,99.90
2018-06-30T21:37:09.101Z,99.90
2018-06-30T21:41:12.975Z,99.90
2018-06-30T21:45:16.850Z,99.90
2018-06-30T21:49:20.940Z,99.90
2018-06-30T21:53:24.772Z,99.90
2018-06-30T21:57:28.625Z,99.90
2018-06-30T22:01:32.524Z,99.90
2018-06-30T22:05:36.408Z,99.90
2018-06-30T22:13:43.917Z,99.90
2018-06-30T22:17:47.781Z,99.90
2018-06-30T22:21:51.644Z,99.90
2018-06-30T22:25:55.500Z,99.90
2018-06-30T22:29:59.367Z,99.90
2018-06-30T22:34:03.229Z,99.90
2018-06-30T22:38:07.179Z,99.90
2018-06-30T22:42:11.021Z,99.90
2018-06-30T22:50:18.939Z,99.90
2018-06-30T22:54:22.865Z,99.90
2018-06-30T23:02:30.171Z,99.90
2018-06-30T23:06:34.028Z,99.90
2018-06-30T23:10:38.058Z,99.90
2018-06-30T23:14:41.917Z,99.90
2018-06-30T23:18:45.775Z,99.90
2018-06-30T23:22:56.460Z,99.90
2018-06-30T23:27:00.353Z,99.90
2018-06-30T23:31:04.293Z,99.90
2018-06-30T23:35:08.259Z,99.90
2018-06-30T23:39:12.109Z,99.90
2018-06-30T23:43:15.963Z,99.90
2018-06-30T23:47:19.925Z,99.90
2018-06-30T23:51:23.760Z,99.90
2018-06-30T23:55:27.652Z,99.90
2018-06-30T23:59:31.511Z,99.90
